createdAt,value
2023-02-09T00:02:13.946Z,93.60
2023-02-09T00:04:42.344Z,93.30
2023-02-09T00:07:10.437Z,93.70
2023-02-09T00:09:38.679Z,93.90
2023-02-09T00:12:24.708Z,94.00
2023-02-09T00:14:54.184Z,94.10
2023-02-09T00:17:22.996Z,93.60
2023-02-09T00:19:51.076Z,93.60
2023-02-09T00:22:19.134Z,93.50
2023-02-09T00:24:47.528Z,93.30
2023-02-09T00:27:15.866Z,93.50
2023-02-09T00:29:46.864Z,93.70
2023-02-09T00:32:16.267Z,94.30
2023-02-09T00:34:44.728Z,94.40
2023-02-09T00:37:13.104Z,94.40
2023-02-09T00:39:41.153Z,94.40
2023-02-09T00:42:10.987Z,94.30
2023-02-09T00:44:41.608Z,94.30
2023-02-09T00:47:10.979Z,94.50
2023-02-09T00:49:40.986Z,94.40
2023-02-09T00:52:10.151Z,94.30
2023-02-09T00:54:38.420Z,94.30
2023-02-09T00:57:06.541Z,94.40
2023-02-09T00:59:35.475Z,94.30
2023-02-09T01:02:04.096Z,94.30
2023-02-09T01:04:32.664Z,94.30
2023-02-09T01:07:02.162Z,94.20
2023-02-09T01:09:30.774Z,94.20
2023-02-09T01:11:58.823Z,94.20
2023-02-09T01:14:26.886Z,94.20
2023-02-09T01:16:54.966Z,94.20
2023-02-09T01:19:23.086Z,94.30
2023-02-09T01:21:51.135Z,94.30
2023-02-09T01:24:20.558Z,94.30
2023-02-09T01:26:48.640Z,94.40
2023-02-09T01:29:19.889Z,94.40
2023-02-09T01:31:48.577Z,94.40
2023-02-09T01:34:19.325Z,94.40
2023-02-09T01:36:48.320Z,94.40
2023-02-09T01:39:16.722Z,94.80
2023-02-09T01:41:46.523Z,94.40
2023-02-09T01:45:10.796Z,94.30
2023-02-09T01:47:46.736Z,94.30
2023-02-09T01:50:16.696Z,94.30
2023-02-09T01:52:49.537Z,94.30
2023-02-09T01:55:23.558Z,94.40
2023-02-09T01:57:58.581Z,94.40
2023-02-09T02:00:28.842Z,94.30
2023-02-09T02:03:02.728Z,94.30
2023-02-09T02:05:34.953Z,94.30
2023-02-09T02:08:11.561Z,94.40
2023-02-09T02:10:39.901Z,94.30
2023-02-09T02:13:09.298Z,94.30
2023-02-09T02:15:52.714Z,94.30
2023-02-09T02:18:44.492Z,94.40
2023-02-09T02:21:57.582Z,94.20
2023-02-09T02:25:19.797Z,94.20
2023-02-09T02:28:00.191Z,94.20
2023-02-09T02:30:53.917Z,94.20
2023-02-09T02:33:38.078Z,94.20
2023-02-09T02:36:20.519Z,94.10
2023-02-09T02:38:59.582Z,94.10
2023-02-09T02:41:53.694Z,94.10
2023-02-09T02:44:21.775Z,94.10
2023-02-09T02:46:56.299Z,94.10
2023-02-09T02:49:35.630Z,94.10
2023-02-09T02:52:09.210Z,94.00
2023-02-09T02:54:42.583Z,94.00
2023-02-09T02:57:16.026Z,94.00
2023-02-09T02:59:49.599Z,93.90
2023-02-09T03:02:23.707Z,93.80
2023-02-09T03:04:56.907Z,93.80
2023-02-09T03:07:25.462Z,93.70
2023-02-09T03:09:56.728Z,93.60
2023-02-09T03:12:36.913Z,93.60
2023-02-09T03:15:20.226Z,93.50
2023-02-09T03:18:02.347Z,93.30
2023-02-09T03:20:44.486Z,93.40
2023-02-09T03:23:27.820Z,93.20
2023-02-09T03:25:58.457Z,93.20
2023-02-09T03:28:33.025Z,93.20
2023-02-09T03:31:02.196Z,93.20
2023-02-09T03:33:34.047Z,93.10
2023-02-09T03:36:09.904Z,93.10
2023-02-09T03:38:37.954Z,93.00
2023-02-09T03:41:08.012Z,93.00
2023-02-09T03:43:53.849Z,93.10
2023-02-09T03:46:22.225Z,93.10
2023-02-09T03:48:50.976Z,93.20
2023-02-09T03:51:20.370Z,93.20
2023-02-09T03:53:48.399Z,93.20
2023-02-09T03:56:16.445Z,93.20
2023-02-09T03:58:44.868Z,93.10
2023-02-09T04:01:13.239Z,93.60
2023-02-09T04:03:41.267Z,93.20
2023-02-09T04:06:10.898Z,93.20
2023-02-09T04:08:42.988Z,93.10
2023-02-09T04:11:11.209Z,93.10
2023-02-09T04:13:39.248Z,93.10
2023-02-09T04:16:08.083Z,93.10
2023-02-09T04:18:36.208Z,93.20
2023-02-09T04:21:04.436Z,93.00
2023-02-09T04:23:32.491Z,93.10
2023-02-09T04:26:01.896Z,93.00
2023-02-09T04:28:30.219Z,93.10
2023-02-09T04:30:59.003Z,93.00
2023-02-09T04:33:27.168Z,93.10
2023-02-09T04:35:55.239Z,93.10
2023-02-09T04:38:23.559Z,93.10
2023-02-09T04:40:54.464Z,93.20
2023-02-09T04:43:24.284Z,93.10
2023-02-09T04:45:52.776Z,93.20
2023-02-09T04:48:24.964Z,93.20
2023-02-09T04:50:54.426Z,93.10
2023-02-09T04:53:23.508Z,93.10
2023-02-09T04:55:53.215Z,93.00
2023-02-09T04:58:40.496Z,92.90
2023-02-09T05:01:13.200Z,93.00
2023-02-09T05:03:42.451Z,93.00
2023-02-09T05:06:10.717Z,92.80
2023-02-09T05:08:39.409Z,92.90
2023-02-09T05:11:07.811Z,92.90
2023-02-09T05:13:37.314Z,92.80
2023-02-09T05:16:07.649Z,92.80
2023-02-09T05:18:37.029Z,92.80
2023-02-09T05:21:05.637Z,92.80
2023-02-09T05:23:34.144Z,92.70
2023-02-09T05:26:02.406Z,92.60
2023-02-09T05:28:30.535Z,92.60
2023-02-09T05:30:59.986Z,92.60
2023-02-09T05:33:28.171Z,92.70
2023-02-09T05:35:56.698Z,92.70
2023-02-09T05:38:25.310Z,92.60
2023-02-09T05:40:53.378Z,92.60
2023-02-09T05:43:21.692Z,92.50
2023-02-09T05:45:49.863Z,92.60
2023-02-09T05:48:19.272Z,92.50
2023-02-09T05:50:49.308Z,92.60
2023-02-09T05:53:17.411Z,92.70
2023-02-09T05:55:46.978Z,92.60
2023-02-09T05:58:15.625Z,92.50
2023-02-09T06:00:44.156Z,92.30
2023-02-09T06:03:12.416Z,92.60
2023-02-09T06:05:45.154Z,92.40
2023-02-09T06:08:13.184Z,92.60
2023-02-09T06:10:41.254Z,92.60
2023-02-09T06:13:09.293Z,92.60
2023-02-09T06:15:37.352Z,92.60
2023-02-09T06:18:05.818Z,92.60
2023-02-09T06:20:33.880Z,92.50
2023-02-09T06:23:03.300Z,92.70
2023-02-09T06:25:31.364Z,92.80
2023-02-09T06:27:59.445Z,92.80
2023-02-09T06:30:27.491Z,92.60
2023-02-09T06:32:55.556Z,92.60
2023-02-09T06:35:23.672Z,92.50
2023-02-09T06:37:51.739Z,92.50
2023-02-09T06:40:21.416Z,92.50
2023-02-09T06:42:49.832Z,92.60
2023-02-09T06:45:18.892Z,92.60
2023-02-09T06:47:47.982Z,92.80
2023-02-09T06:50:18.088Z,92.70
2023-02-09T06:52:46.432Z,92.70
2023-02-09T06:55:15.037Z,92.70
2023-02-09T06:57:44.401Z,92.70
2023-02-09T07:00:14.773Z,92.70
2023-02-09T07:02:43.796Z,92.80
2023-02-09T07:05:13.012Z,92.70
2023-02-09T07:07:41.498Z,92.80
2023-02-09T07:10:12.849Z,92.80
2023-02-09T07:12:43.285Z,92.90
2023-02-09T07:15:14.891Z,92.80
2023-02-09T07:17:43.226Z,92.80
2023-02-09T07:20:13.335Z,92.80
2023-02-09T07:22:41.974Z,92.70
2023-02-09T07:25:10.537Z,92.80
2023-02-09T07:27:38.552Z,92.80
2023-02-09T07:30:07.833Z,92.80
2023-02-09T07:32:38.510Z,92.70
2023-02-09T07:35:07.300Z,92.30
2023-02-09T07:37:36.951Z,91.60
2023-02-09T07:40:05.504Z,91.00
2023-02-09T07:42:33.529Z,90.80
2023-02-09T07:45:02.760Z,90.70
2023-02-09T07:47:30.801Z,90.50
2023-02-09T07:50:00.211Z,90.50
2023-02-09T07:52:28.302Z,90.40
2023-02-09T07:54:56.339Z,89.80
2023-02-09T07:57:24.785Z,89.50
2023-02-09T07:59:52.780Z,89.90
2023-02-09T08:02:31.251Z,89.50
2023-02-09T08:05:01.909Z,88.80
2023-02-09T08:07:30.832Z,89.10
2023-02-09T08:09:59.058Z,89.20
2023-02-09T08:12:49.895Z,89.40
2023-02-09T08:15:21.661Z,89.00
2023-02-09T08:17:51.837Z,88.80
2023-02-09T08:20:26.440Z,88.80
2023-02-09T08:23:02.826Z,89.40
2023-02-09T08:25:31.028Z,89.70
2023-02-09T08:27:59.274Z,89.00
2023-02-09T08:30:27.324Z,88.60
2023-02-09T08:32:55.387Z,87.30
2023-02-09T08:35:24.764Z,87.40
2023-02-09T08:37:52.884Z,86.00
2023-02-09T08:40:21.731Z,85.90
2023-02-09T08:42:49.786Z,85.00
2023-02-09T08:45:18.011Z,85.10
2023-02-09T08:47:46.102Z,85.40
2023-02-09T08:50:14.257Z,84.90
2023-02-09T08:52:43.762Z,85.40
2023-02-09T08:55:12.091Z,85.50
2023-02-09T08:57:44.438Z,84.20
2023-02-09T09:00:14.766Z,84.00
2023-02-09T09:02:42.849Z,83.50
2023-02-09T09:05:10.969Z,84.10
2023-02-09T09:07:39.263Z,83.40
2023-02-09T09:10:10.838Z,84.40
2023-02-09T09:12:39.247Z,83.80
2023-02-09T09:15:08.528Z,83.00
2023-02-09T09:17:36.562Z,82.70
2023-02-09T09:20:06.861Z,83.40
2023-02-09T09:22:35.034Z,82.50
2023-02-09T09:25:03.239Z,82.50
2023-02-09T09:27:34.897Z,82.30
2023-02-09T09:30:05.218Z,82.60
2023-02-09T09:32:33.362Z,81.60
2023-02-09T09:35:03.374Z,81.80
2023-02-09T09:37:31.450Z,81.60
2023-02-09T09:40:00.246Z,81.90
2023-02-09T09:42:37.141Z,81.50
2023-02-09T09:45:08.314Z,80.70
2023-02-09T09:47:40.344Z,81.20
2023-02-09T09:50:19.253Z,80.80
2023-02-09T09:52:52.628Z,81.80
2023-02-09T09:55:26.529Z,80.50
2023-02-09T09:58:00.667Z,79.90
2023-02-09T10:00:34.717Z,79.30
2023-02-09T10:03:03.227Z,79.60
2023-02-09T10:05:41.186Z,79.30
2023-02-09T10:08:20.646Z,78.60
2023-02-09T10:10:58.341Z,79.40
2023-02-09T10:13:34.756Z,78.20
2023-02-09T10:16:03.865Z,78.00
2023-02-09T10:18:35.893Z,78.20
2023-02-09T10:21:07.533Z,77.80
2023-02-09T10:23:42.017Z,76.90
2023-02-09T10:26:23.908Z,77.50
2023-02-09T10:28:56.334Z,77.30
2023-02-09T10:31:30.371Z,77.70
2023-02-09T10:34:05.007Z,76.70
2023-02-09T10:36:37.498Z,77.00
2023-02-09T10:39:17.884Z,76.80
2023-02-09T10:41:51.047Z,77.50
2023-02-09T10:44:25.773Z,76.40
2023-02-09T10:47:11.890Z,75.90
2023-02-09T10:49:40.793Z,74.70
2023-02-09T10:52:19.291Z,75.00
2023-02-09T10:54:52.583Z,74.60
2023-02-09T10:57:27.778Z,74.50
2023-02-09T11:00:00.062Z,74.50
2023-02-09T11:02:38.968Z,75.00
2023-02-09T11:05:31.922Z,75.40
2023-02-09T11:08:13.540Z,74.50
2023-02-09T11:10:54.775Z,74.20
2023-02-09T11:13:26.897Z,73.60
2023-02-09T11:16:48.193Z,73.30
2023-02-09T11:19:36.829Z,73.60
2023-02-09T11:22:13.024Z,72.00
2023-02-09T11:25:00.094Z,72.10
2023-02-09T11:27:51.221Z,72.30
2023-02-09T11:30:37.948Z,71.60
2023-02-09T11:33:22.871Z,70.10
2023-02-09T11:36:18.345Z,70.80
2023-02-09T11:38:55.126Z,71.50
2023-02-09T11:41:49.758Z,72.80
2023-02-09T11:44:38.476Z,71.90
2023-02-09T11:47:13.401Z,72.60
2023-02-09T11:49:48.544Z,73.80
2023-02-09T11:52:24.687Z,73.30
2023-02-09T11:55:00.403Z,73.50
2023-02-09T11:57:37.061Z,73.90
2023-02-09T12:00:13.586Z,70.40
2023-02-09T12:02:53.520Z,70.10
2023-02-09T12:05:24.516Z,70.20
2023-02-09T12:08:34.699Z,68.40
2023-02-09T12:11:31.165Z,65.70
2023-02-09T12:14:55.420Z,65.50
2023-02-09T12:17:35.432Z,65.40
2023-02-09T12:20:04.713Z,65.90
2023-02-09T12:22:54.434Z,66.90
2023-02-09T12:25:50.886Z,65.20
2023-02-09T12:28:41.400Z,65.40
2023-02-09T12:31:21.717Z,65.80
2023-02-09T12:34:14.461Z,66.00
2023-02-09T12:37:18.030Z,66.10
2023-02-09T12:40:25.405Z,65.20
2023-02-09T12:43:28.057Z,64.00
2023-02-09T12:46:22.359Z,66.10
2023-02-09T12:49:00.758Z,64.30
2023-02-09T12:51:51.802Z,63.40
2023-02-09T12:54:47.441Z,64.70
2023-02-09T12:57:53.654Z,63.70
2023-02-09T13:00:54.758Z,63.50
2023-02-09T13:03:26.355Z,63.70
2023-02-09T13:06:02.744Z,63.90
2023-02-09T13:08:49.753Z,64.00
2023-02-09T13:11:29.218Z,63.70
2023-02-09T13:14:03.802Z,62.80
2023-02-09T13:16:54.328Z,63.50
2023-02-09T13:19:52.061Z,61.90
2023-02-09T13:22:45.799Z,62.20
2023-02-09T13:25:27.495Z,63.10
2023-02-09T13:27:55.598Z,64.40
2023-02-09T13:30:30.864Z,63.10
2023-02-09T13:33:16.234Z,63.80
2023-02-09T13:36:08.940Z,62.70
2023-02-09T13:38:37.445Z,62.10
2023-02-09T13:41:08.570Z,62.40
2023-02-09T13:43:40.321Z,62.50
2023-02-09T13:46:26.492Z,63.10
2023-02-09T13:48:55.361Z,63.40
2023-02-09T13:51:24.581Z,63.90
2023-02-09T13:54:01.628Z,63.40
2023-02-09T13:56:33.536Z,64.00
2023-02-09T13:59:02.492Z,64.50
2023-02-09T14:01:37.763Z,64.10
2023-02-09T14:04:15.996Z,64.40
2023-02-09T14:06:50.394Z,64.70
2023-02-09T14:09:25.165Z,65.00
2023-02-09T14:11:59.270Z,64.60
2023-02-09T14:14:52.675Z,63.60
2023-02-09T14:17:29.894Z,64.10
2023-02-09T14:20:00.700Z,63.90
2023-02-09T14:22:33.366Z,66.00
2023-02-09T14:25:02.164Z,65.20
2023-02-09T14:27:33.730Z,65.40
2023-02-09T14:30:01.923Z,65.20
2023-02-09T14:32:38.223Z,64.50
2023-02-09T14:35:19.159Z,66.10
2023-02-09T14:37:49.002Z,65.40
2023-02-09T14:40:31.684Z,64.80
2023-02-09T14:43:04.221Z,64.90
2023-02-09T14:45:40.240Z,64.90
2023-02-09T14:48:21.559Z,65.60
2023-02-09T14:50:52.223Z,64.20
2023-02-09T14:53:22.070Z,66.00
2023-02-09T14:55:50.410Z,65.30
2023-02-09T14:58:23.363Z,65.30
2023-02-09T15:00:56.944Z,65.60
2023-02-09T15:03:27.431Z,65.30
2023-02-09T15:06:00.214Z,65.30
2023-02-09T15:08:34.405Z,66.00
2023-02-09T15:11:27.088Z,66.80
2023-02-09T15:14:01.504Z,66.60
2023-02-09T15:16:29.899Z,67.70
2023-02-09T15:19:00.040Z,67.00
2023-02-09T15:21:28.108Z,66.80
2023-02-09T15:23:56.219Z,67.50
2023-02-09T15:26:26.675Z,67.60
2023-02-09T15:28:54.886Z,66.70
2023-02-09T15:31:22.988Z,66.50
2023-02-09T15:33:51.077Z,66.10
2023-02-09T15:36:23.525Z,67.10
2023-02-09T15:38:51.609Z,67.50
2023-02-09T15:41:37.160Z,67.00
2023-02-09T15:44:33.459Z,67.30
2023-02-09T15:47:18.959Z,66.20
2023-02-09T15:49:47.255Z,66.60
2023-02-09T15:52:19.197Z,66.80
2023-02-09T15:54:47.590Z,67.10
2023-02-09T15:57:16.592Z,67.90
2023-02-09T15:59:46.272Z,67.10
2023-02-09T16:02:17.233Z,68.10
2023-02-09T16:04:45.289Z,68.10
2023-02-09T16:07:23.342Z,68.30
2023-02-09T16:09:51.825Z,69.20
2023-02-09T16:12:19.953Z,68.50
2023-02-09T16:14:48.015Z,68.60
2023-02-09T16:17:16.048Z,69.10
2023-02-09T16:19:45.875Z,70.00
2023-02-09T16:22:16.118Z,69.80
2023-02-09T16:24:47.458Z,70.20
2023-02-09T16:27:23.891Z,71.00
2023-02-09T16:29:52.126Z,70.80
2023-02-09T16:32:23.040Z,71.10
2023-02-09T16:34:52.333Z,71.70
2023-02-09T16:37:29.610Z,72.00
2023-02-09T16:39:58.984Z,71.90
2023-02-09T16:42:29.258Z,72.70
2023-02-09T16:44:57.422Z,73.30
2023-02-09T16:47:28.977Z,73.60
2023-02-09T16:50:01.742Z,73.40
2023-02-09T16:52:31.885Z,74.00
2023-02-09T16:55:05.573Z,74.20
2023-02-09T16:57:33.715Z,74.50
2023-02-09T17:00:01.778Z,75.90
2023-02-09T17:02:39.865Z,74.90
2023-02-09T17:05:19.414Z,74.90
2023-02-09T17:07:55.134Z,75.20
2023-02-09T17:10:28.328Z,75.40
2023-02-09T17:12:57.830Z,75.20
2023-02-09T17:15:31.507Z,75.00
2023-02-09T17:18:05.645Z,75.10
2023-02-09T17:20:41.100Z,75.00
2023-02-09T17:23:15.812Z,74.50
2023-02-09T17:25:45.137Z,74.50
2023-02-09T17:28:13.786Z,74.50
2023-02-09T17:30:43.661Z,74.40
2023-02-09T17:33:23.648Z,74.20
2023-02-09T17:38:42.396Z,74.90
2023-02-09T17:41:17.573Z,74.80
2023-02-09T17:43:46.791Z,75.10
2023-02-09T17:46:18.618Z,75.60
2023-02-09T17:48:48.157Z,75.30
2023-02-09T17:51:23.861Z,75.40
2023-02-09T17:53:53.345Z,75.10
2023-02-09T17:56:21.420Z,75.30
2023-02-09T17:58:49.600Z,74.80
2023-02-09T18:01:27.026Z,74.60
2023-02-09T18:03:57.044Z,74.60
2023-02-09T18:06:34.246Z,74.30
2023-02-09T18:09:06.387Z,74.60
2023-02-09T18:11:57.395Z,75.00
2023-02-09T18:14:27.905Z,74.70
2023-02-09T18:16:56.399Z,74.80
2023-02-09T18:19:25.747Z,74.90
2023-02-09T18:21:56.274Z,75.20
2023-02-09T18:24:30.064Z,74.70
2023-02-09T18:27:01.675Z,75.00
2023-02-09T18:29:30.201Z,74.80
2023-02-09T18:31:59.362Z,75.50
2023-02-09T18:34:28.480Z,74.20
2023-02-09T18:36:56.657Z,74.40
2023-02-09T18:39:26.225Z,74.00
2023-02-09T18:41:55.123Z,74.10
2023-02-09T18:44:28.583Z,73.30
2023-02-09T18:46:57.311Z,73.70
2023-02-09T18:49:25.430Z,73.20
2023-02-09T18:51:53.635Z,73.10
2023-02-09T18:54:21.712Z,73.40
2023-02-09T18:56:54.248Z,73.60
2023-02-09T18:59:22.313Z,74.00
2023-02-09T19:01:50.708Z,73.40
2023-02-09T19:04:20.571Z,73.00
2023-02-09T19:06:49.956Z,73.20
2023-02-09T19:09:20.581Z,73.10
2023-02-09T19:11:50.061Z,73.30
2023-02-09T19:14:35.650Z,73.20
2023-02-09T19:17:03.827Z,73.40
2023-02-09T19:19:31.976Z,73.90
2023-02-09T19:22:00.236Z,74.40
2023-02-09T19:24:28.834Z,74.00
2023-02-09T19:26:58.245Z,73.90
2023-02-09T19:29:26.503Z,73.60
2023-02-09T19:31:55.808Z,73.80
2023-02-09T19:34:24.244Z,73.70
2023-02-09T19:36:52.459Z,74.10
2023-02-09T19:39:20.499Z,74.30
2023-02-09T19:41:49.104Z,74.40
2023-02-09T19:44:18.642Z,74.60
2023-02-09T19:46:46.794Z,74.70
2023-02-09T19:49:14.902Z,75.00
2023-02-09T19:51:42.970Z,75.50
2023-02-09T19:54:11.065Z,75.80
2023-02-09T19:56:39.294Z,75.70
2023-02-09T19:59:07.462Z,76.10
2023-02-09T20:01:38.515Z,76.00
2023-02-09T20:04:07.032Z,76.20
2023-02-09T20:06:35.133Z,76.20
2023-02-09T20:09:03.601Z,76.10
2023-02-09T20:11:33.169Z,76.30
2023-02-09T20:16:34.312Z,76.20
2023-02-09T20:19:04.529Z,76.10
2023-02-09T20:21:32.583Z,76.20
2023-02-09T20:24:00.697Z,76.30
2023-02-09T20:26:32.956Z,76.60
2023-02-09T20:29:05.228Z,76.70
2023-02-09T20:31:38.117Z,76.90
2023-02-09T20:34:10.644Z,76.50
2023-02-09T20:36:41.468Z,76.80
2023-02-09T20:39:18.142Z,77.40
2023-02-09T20:42:02.276Z,77.70
2023-02-09T20:44:47.993Z,78.00
2023-02-09T20:47:16.058Z,78.50
2023-02-09T20:49:46.168Z,78.60
2023-02-09T20:52:14.350Z,79.90
2023-02-09T20:54:42.502Z,79.30
2023-02-09T20:57:10.692Z,79.70
2023-02-09T20:59:39.366Z,80.60
2023-02-09T21:02:07.465Z,81.20
2023-02-09T21:04:35.527Z,82.10
2023-02-09T21:07:05.090Z,82.70
2023-02-09T21:09:33.164Z,83.20
2023-02-09T21:12:01.227Z,83.90
2023-02-09T21:14:41.738Z,84.10
2023-02-09T21:17:10.986Z,84.00
2023-02-09T21:19:39.450Z,84.30
2023-02-09T21:22:09.517Z,84.30
2023-02-09T21:24:39.141Z,84.60
2023-02-09T21:27:07.747Z,84.80
2023-02-09T21:29:36.849Z,85.20
2023-02-09T21:32:07.900Z,85.80
2023-02-09T21:34:36.237Z,86.30
2023-02-09T21:37:07.758Z,86.10
2023-02-09T21:39:37.238Z,86.20
2023-02-09T21:42:23.098Z,86.50
2023-02-09T21:44:51.165Z,86.60
2023-02-09T21:47:19.230Z,86.70
2023-02-09T21:49:47.296Z,87.00
2023-02-09T21:52:15.384Z,87.20
2023-02-09T21:54:44.934Z,87.40
2023-02-09T21:57:13.049Z,87.80
2023-02-09T21:59:41.148Z,88.10
2023-02-09T22:02:13.578Z,88.20
2023-02-09T22:04:42.006Z,88.20
2023-02-09T22:07:10.961Z,88.30
2023-02-09T22:09:39.448Z,88.30
2023-02-09T22:12:09.934Z,88.60
2023-02-09T22:14:38.356Z,88.70
2023-02-09T22:17:06.529Z,88.80
2023-02-09T22:19:34.574Z,89.00
2023-02-09T22:22:02.641Z,89.30
2023-02-09T22:24:34.592Z,89.50
2023-02-09T22:27:03.595Z,89.70
2023-02-09T22:29:34.481Z,90.00
2023-02-09T22:32:02.703Z,90.00
2023-02-09T22:34:30.935Z,90.10
2023-02-09T22:36:58.978Z,90.30
2023-02-09T22:39:27.050Z,90.40
2023-02-09T22:41:57.952Z,90.50
2023-02-09T22:44:28.041Z,90.60
2023-02-09T22:46:57.986Z,90.70
2023-02-09T22:49:26.030Z,90.80
2023-02-09T22:51:54.081Z,90.90
2023-02-09T22:54:22.241Z,91.10
2023-02-09T22:56:50.449Z,91.40
2023-02-09T22:59:18.624Z,91.70
2023-02-09T23:01:46.719Z,91.70
2023-02-09T23:04:16.328Z,92.10
2023-02-09T23:06:44.389Z,92.90
2023-02-09T23:09:14.901Z,92.90
2023-02-09T23:11:44.251Z,93.20
2023-02-09T23:14:13.534Z,93.30
2023-02-09T23:16:44.700Z,93.50
2023-02-09T23:19:17.598Z,93.70
2023-02-09T23:21:49.041Z,94.00
2023-02-09T23:24:21.543Z,94.30
2023-02-09T23:26:50.100Z,94.40
2023-02-09T23:29:19.840Z,95.00
2023-02-09T23:31:49.347Z,95.10
2023-02-09T23:34:21.579Z,95.10
2023-02-09T23:36:50.385Z,95.30
2023-02-09T23:39:22.262Z,95.20
2023-02-09T23:41:50.601Z,95.40
2023-02-09T23:44:19.424Z,95.40
2023-02-09T23:46:47.625Z,95.60
2023-02-09T23:49:15.746Z,95.70
2023-02-09T23:51:46.919Z,95.80
2023-02-09T23:54:15.154Z,95.80
2023-02-09T23:56:45.502Z,95.80
2023-02-09T23:59:16.286Z,95.70
